Terminal Aerodrome Forecast
Issued by NWS Wakefield, VA

Home | Current Version | Previous Version | Text Only | Print | Product List | Glossary On
Versions: 1 2 3 4 5 6 7 8 9 10 11 12 13 14 15 16
000
FTUS41 KAKQ 040008 AAA
TAFECG
TAF AMD
KECG 040008Z 0400/0424 09011KT 5SM -RA VCTS SCT035CB OVC070
      TEMPO 0400/0404 1SM TSRA BR BKN025CB OVC060
     FM040400 21008KT 4SM -RA BR BKN025
     FM040800 23013KT 5SM -SHRA BR BKN030 BKN060
     FM041300 27012G17KT P6SM BKN040=

USA.gov is the U.S. government's official web portal to all federal, state and local government web resources and services.